sensor_id;sensor_type;location;lat;lon;timestamp;pressure;altitude;pressure_sealevel;temperature;humidity
46087;BME280;31824;49.648;8.640;2023-02-28T00:00:04;101362.44;;;-2.58;100.00
46087;BME280;31824;49.648;8.640;2023-02-28T00:03:12;101360.88;;;-2.51;100.00
46087;BME280;31824;49.648;8.640;2023-02-28T00:06:16;101370.34;;;-2.41;100.00
46087;BME280;31824;49.648;8.640;2023-02-28T00:09:17;101368.13;;;-2.49;100.00
46087;BME280;31824;49.648;8.640;2023-02-28T00:12:19;101369.78;;;-2.49;100.00
46087;BME280;31824;49.648;8.640;2023-02-28T00:15:22;101367.56;;;-2.36;100.00
46087;BME280;31824;49.648;8.640;2023-02-28T00:18:24;101361.66;;;-2.41;100.00
46087;BME280;31824;49.648;8.640;2023-02-28T00:21:27;101366.53;;;-2.48;100.00
46087;BME280;31824;49.648;8.640;2023-02-28T00:24:29;101367.88;;;-2.50;100.00
46087;BME280;31824;49.648;8.640;2023-02-28T00:27:31;101367.84;;;-2.56;100.00
46087;BME280;31824;49.648;8.640;2023-02-28T00:30:39;101360.13;;;-2.56;100.00
46087;BME280;31824;49.648;8.640;2023-02-28T00:33:42;101361.97;;;-2.61;100.00
46087;BME280;31824;49.648;8.640;2023-02-28T00:36:45;101363.78;;;-2.65;100.00
46087;BME280;31824;49.648;8.640;2023-02-28T00:39:50;101353.88;;;-2.74;100.00
46087;BME280;31824;49.648;8.640;2023-02-28T00:42:52;101365.56;;;-2.76;100.00
46087;BME280;31824;49.648;8.640;2023-02-28T00:45:54;101364.09;;;-2.79;100.00
46087;BME280;31824;49.648;8.640;2023-02-28T00:48:56;101366.72;;;-2.74;100.00
46087;BME280;31824;49.648;8.640;2023-02-28T00:51:59;101360.78;;;-2.84;100.00
46087;BME280;31824;49.648;8.640;2023-02-28T00:55:01;101359.53;;;-2.92;100.00
46087;BME280;31824;49.648;8.640;2023-02-28T00:58:03;101357.41;;;-2.94;100.00
46087;BME280;31824;49.648;8.640;2023-02-28T01:01:06;101361.66;;;-2.89;100.00
46087;BME280;31824;49.648;8.640;2023-02-28T01:04:08;101366.63;;;-2.85;100.00
46087;BME280;31824;49.648;8.640;2023-02-28T01:07:11;101370.84;;;-2.85;100.00
46087;BME280;31824;49.648;8.640;2023-02-28T01:10:13;101367.78;;;-2.83;100.00
46087;BME280;31824;49.648;8.640;2023-02-28T01:13:16;101367.19;;;-2.97;100.00
46087;BME280;31824;49.648;8.640;2023-02-28T01:16:17;101364.56;;;-3.03;100.00
46087;BME280;31824;49.648;8.640;2023-02-28T01:19:19;101360.84;;;-2.99;100.00
46087;BME280;31824;49.648;8.640;2023-02-28T01:22:23;101355.47;;;-3.01;100.00
46087;BME280;31824;49.648;8.640;2023-02-28T01:25:25;101351.97;;;-3.01;100.00
46087;BME280;31824;49.648;8.640;2023-02-28T01:28:27;101355.84;;;-3.09;100.00
46087;BME280;31824;49.648;8.640;2023-02-28T01:31:31;101362.44;;;-3.06;100.00
46087;BME280;31824;49.648;8.640;2023-02-28T01:34:33;101346.00;;;-3.12;100.00
46087;BME280;31824;49.648;8.640;2023-02-28T01:37:36;101348.38;;;-3.08;100.00
46087;BME280;31824;49.648;8.640;2023-02-28T01:40:38;101351.72;;;-3.03;100.00
46087;BME280;31824;49.648;8.640;2023-02-28T01:43:57;101344.63;;;-3.10;100.00
46087;BME280;31824;49.648;8.640;2023-02-28T01:46:59;101343.09;;;-3.19;100.00
46087;BME280;31824;49.648;8.640;2023-02-28T01:50:06;101338.84;;;-3.24;100.00
46087;BME280;31824;49.648;8.640;2023-02-28T01:53:14;101342.09;;;-3.25;100.00
46087;BME280;31824;49.648;8.640;2023-02-28T01:56:20;101342.03;;;-3.31;100.00
46087;BME280;31824;49.648;8.640;2023-02-28T01:59:24;101336.88;;;-3.31;100.00
46087;BME280;31824;49.648;8.640;2023-02-28T02:02:29;101333.94;;;-3.23;100.00
46087;BME280;31824;49.648;8.640;2023-02-28T03:21:37;101322.63;;;-3.71;100.00
46087;BME280;31824;49.648;8.640;2023-02-28T03:29:37;101321.72;;;-3.50;100.00
46087;BME280;31824;49.648;8.640;2023-02-28T03:33:08;101320.88;;;-3.61;100.00
46087;BME280;31824;49.648;8.640;2023-02-28T03:36:48;101323.19;;;-3.62;100.00
46087;BME280;31824;49.648;8.640;2023-02-28T03:40:19;101322.88;;;-3.69;100.00
46087;BME280;31824;49.648;8.640;2023-02-28T03:44:02;101326.72;;;-3.77;100.00
46087;BME280;31824;49.648;8.640;2023-02-28T03:48:38;101325.38;;;-3.75;100.00
46087;BME280;31824;49.648;8.640;2023-02-28T03:52:28;101319.63;;;-3.84;100.00
46087;BME280;31824;49.648;8.640;2023-02-28T03:56:19;101322.19;;;-3.68;100.00
46087;BME280;31824;49.648;8.640;2023-02-28T04:01:10;101319.00;;;-3.77;100.00
46087;BME280;31824;49.648;8.640;2023-02-28T04:04:39;101306.00;;;-3.73;100.00
46087;BME280;31824;49.648;8.640;2023-02-28T04:08:11;101308.50;;;-3.79;100.00
46087;BME280;31824;49.648;8.640;2023-02-28T04:11:22;101318.91;;;-3.67;100.00
46087;BME280;31824;49.648;8.640;2023-02-28T04:14:48;101322.94;;;-3.64;100.00
46087;BME280;31824;49.648;8.640;2023-02-28T04:18:57;101325.31;;;-3.60;100.00
46087;BME280;31824;49.648;8.640;2023-02-28T04:22:43;101323.44;;;-3.61;100.00
46087;BME280;31824;49.648;8.640;2023-02-28T04:26:00;101323.28;;;-3.72;100.00
46087;BME280;31824;49.648;8.640;2023-02-28T04:29:30;101321.72;;;-3.66;100.00
46087;BME280;31824;49.648;8.640;2023-02-28T04:34:25;101324.66;;;-3.74;100.00
46087;BME280;31824;49.648;8.640;2023-02-28T04:38:33;101320.84;;;-3.82;100.00
46087;BME280;31824;49.648;8.640;2023-02-28T04:41:41;101312.41;;;-3.81;100.00
46087;BME280;31824;49.648;8.640;2023-02-28T04:45:22;101320.47;;;-3.74;100.00
46087;BME280;31824;49.648;8.640;2023-02-28T04:49:32;101314.00;;;-3.87;100.00
46087;BME280;31824;49.648;8.640;2023-02-28T04:52:42;101317.22;;;-3.88;100.00
46087;BME280;31824;49.648;8.640;2023-02-28T04:56:36;101310.75;;;-3.86;100.00
46087;BME280;31824;49.648;8.640;2023-02-28T05:01:04;101322.28;;;-3.94;100.00
46087;BME280;31824;49.648;8.640;2023-02-28T05:04:56;101336.16;;;-3.87;100.00
46087;BME280;31824;49.648;8.640;2023-02-28T05:09:12;101328.19;;;-3.89;100.00
46087;BME280;31824;49.648;8.640;2023-02-28T05:23:33;101329.03;;;-3.79;100.00
46087;BME280;31824;49.648;8.640;2023-02-28T05:32:38;101334.06;;;-3.69;100.00
46087;BME280;31824;49.648;8.640;2023-02-28T05:36:45;101336.53;;;-3.59;100.00
46087;BME280;31824;49.648;8.640;2023-02-28T05:45:07;101332.84;;;-3.56;100.00
46087;BME280;31824;49.648;8.640;2023-02-28T05:48:10;101332.72;;;-3.46;100.00
46087;BME280;31824;49.648;8.640;2023-02-28T05:51:12;101337.72;;;-3.57;100.00
46087;BME280;31824;49.648;8.640;2023-02-28T05:54:14;101338.41;;;-3.58;100.00
46087;BME280;31824;49.648;8.640;2023-02-28T05:57:15;101340.56;;;-3.56;100.00
46087;BME280;31824;49.648;8.640;2023-02-28T06:00:26;101345.44;;;-3.57;100.00
46087;BME280;31824;49.648;8.640;2023-02-28T06:03:29;101350.03;;;-3.45;100.00
46087;BME280;31824;49.648;8.640;2023-02-28T06:06:31;101353.53;;;-3.44;100.00
46087;BME280;31824;49.648;8.640;2023-02-28T06:09:38;101339.19;;;-3.53;100.00
46087;BME280;31824;49.648;8.640;2023-02-28T06:12:39;101354.25;;;-3.24;100.00
46087;BME280;31824;49.648;8.640;2023-02-28T06:15:44;101336.84;;;-3.15;100.00
46087;BME280;31824;49.648;8.640;2023-02-28T06:18:46;101341.59;;;-2.86;100.00
46087;BME280;31824;49.648;8.640;2023-02-28T06:21:50;101348.28;;;-2.71;100.00
46087;BME280;31824;49.648;8.640;2023-02-28T06:24:53;101348.56;;;-2.91;100.00
46087;BME280;31824;49.648;8.640;2023-02-28T06:27:56;101338.59;;;-2.83;100.00
46087;BME280;31824;49.648;8.640;2023-02-28T06:30:59;101346.44;;;-2.93;100.00
46087;BME280;31824;49.648;8.640;2023-02-28T06:34:01;101352.34;;;-2.41;100.00
46087;BME280;31824;49.648;8.640;2023-02-28T06:37:03;101343.72;;;-2.62;100.00
46087;BME280;31824;49.648;8.640;2023-02-28T06:40:05;101343.28;;;-2.60;100.00
46087;BME280;31824;49.648;8.640;2023-02-28T06:43:08;101344.50;;;-2.52;100.00
46087;BME280;31824;49.648;8.640;2023-02-28T06:46:12;101351.66;;;-2.34;100.00
46087;BME280;31824;49.648;8.640;2023-02-28T06:49:16;101354.25;;;-2.01;100.00
46087;BME280;31824;49.648;8.640;2023-02-28T06:52:18;101346.72;;;-1.73;100.00
46087;BME280;31824;49.648;8.640;2023-02-28T06:55:23;101348.19;;;-1.58;100.00
46087;BME280;31824;49.648;8.640;2023-02-28T06:58:25;101348.97;;;-1.48;100.00
46087;BME280;31824;49.648;8.640;2023-02-28T07:01:28;101360.34;;;-1.19;100.00
46087;BME280;31824;49.648;8.640;2023-02-28T07:04:31;101366.97;;;-0.98;100.00
46087;BME280;31824;49.648;8.640;2023-02-28T07:07:33;101373.56;;;-0.89;100.00
46087;BME280;31824;49.648;8.640;2023-02-28T07:10:37;101366.75;;;-0.83;100.00
46087;BME280;31824;49.648;8.640;2023-02-28T07:13:38;101370.31;;;-0.77;100.00
46087;BME280;31824;49.648;8.640;2023-02-28T07:16:42;101363.78;;;-0.63;100.00
46087;BME280;31824;49.648;8.640;2023-02-28T07:19:43;101379.50;;;-0.56;100.00
46087;BME280;31824;49.648;8.640;2023-02-28T07:22:45;101379.50;;;-0.51;100.00
46087;BME280;31824;49.648;8.640;2023-02-28T07:25:47;101383.03;;;-0.44;100.00
46087;BME280;31824;49.648;8.640;2023-02-28T07:28:50;101383.50;;;-0.36;100.00
46087;BME280;31824;49.648;8.640;2023-02-28T07:31:53;101378.38;;;-0.24;100.00
46087;BME280;31824;49.648;8.640;2023-02-28T07:34:55;101383.31;;;-0.20;100.00
46087;BME280;31824;49.648;8.640;2023-02-28T07:37:58;101376.72;;;-0.18;100.00
46087;BME280;31824;49.648;8.640;2023-02-28T07:41:00;101381.91;;;-0.07;100.00
46087;BME280;31824;49.648;8.640;2023-02-28T07:44:01;101383.28;;;-0.09;100.00
46087;BME280;31824;49.648;8.640;2023-02-28T07:47:06;101377.19;;;0.19;100.00
46087;BME280;31824;49.648;8.640;2023-02-28T07:50:10;101390.06;;;0.36;100.00
46087;BME280;31824;49.648;8.640;2023-02-28T07:53:12;101392.13;;;0.50;100.00
46087;BME280;31824;49.648;8.640;2023-02-28T07:56:14;101393.13;;;0.33;100.00
46087;BME280;31824;49.648;8.640;2023-02-28T07:59:16;101392.16;;;0.44;100.00
46087;BME280;31824;49.648;8.640;2023-02-28T08:02:19;101389.84;;;0.23;100.00
46087;BME280;31824;49.648;8.640;2023-02-28T08:05:21;101392.41;;;0.35;100.00
46087;BME280;31824;49.648;8.640;2023-02-28T08:08:23;101396.41;;;0.38;100.00
46087;BME280;31824;49.648;8.640;2023-02-28T08:11:25;101400.63;;;0.32;100.00
46087;BME280;31824;49.648;8.640;2023-02-28T08:14:27;101402.50;;;0.39;100.00
46087;BME280;31824;49.648;8.640;2023-02-28T08:17:30;101397.78;;;0.53;100.00
46087;BME280;31824;49.648;8.640;2023-02-28T08:20:35;101406.00;;;0.56;100.00
46087;BME280;31824;49.648;8.640;2023-02-28T08:23:37;101406.25;;;0.41;100.00
46087;BME280;31824;49.648;8.640;2023-02-28T08:26:40;101397.78;;;0.47;100.00
46087;BME280;31824;49.648;8.640;2023-02-28T08:29:42;101394.97;;;0.40;100.00
46087;BME280;31824;49.648;8.640;2023-02-28T08:32:45;101396.88;;;0.36;100.00
46087;BME280;31824;49.648;8.640;2023-02-28T08:35:46;101381.28;;;0.58;100.00
46087;BME280;31824;49.648;8.640;2023-02-28T08:38:48;101380.41;;;0.41;100.00
46087;BME280;31824;49.648;8.640;2023-02-28T08:41:50;101381.78;;;0.50;100.00
46087;BME280;31824;49.648;8.640;2023-02-28T08:45:07;101391.66;;;0.53;100.00
46087;BME280;31824;49.648;8.640;2023-02-28T08:48:10;101384.38;;;0.61;100.00
46087;BME280;31824;49.648;8.640;2023-02-28T08:51:14;101386.22;;;0.74;100.00
46087;BME280;31824;49.648;8.640;2023-02-28T08:54:17;101379.84;;;0.72;100.00
46087;BME280;31824;49.648;8.640;2023-02-28T08:57:21;101393.94;;;0.79;100.00
46087;BME280;31824;49.648;8.640;2023-02-28T09:00:23;101389.16;;;0.99;100.00
46087;BME280;31824;49.648;8.640;2023-02-28T09:03:26;101381.66;;;0.95;100.00
46087;BME280;31824;49.648;8.640;2023-02-28T09:06:31;101377.41;;;0.96;100.00
46087;BME280;31824;49.648;8.640;2023-02-28T09:09:33;101379.44;;;1.10;100.00
46087;BME280;31824;49.648;8.640;2023-02-28T09:12:35;101388.09;;;1.22;100.00
46087;BME280;31824;49.648;8.640;2023-02-28T09:15:37;101378.03;;;1.12;100.00
46087;BME280;31824;49.648;8.640;2023-02-28T09:18:41;101370.88;;;1.33;100.00
46087;BME280;31824;49.648;8.640;2023-02-28T09:21:42;101382.28;;;1.47;100.00
46087;BME280;31824;49.648;8.640;2023-02-28T09:24:44;101381.78;;;1.55;100.00
46087;BME280;31824;49.648;8.640;2023-02-28T09:27:46;101385.16;;;1.73;100.00
46087;BME280;31824;49.648;8.640;2023-02-28T09:30:51;101388.75;;;1.67;100.00
46087;BME280;31824;49.648;8.640;2023-02-28T09:33:56;101383.50;;;1.79;100.00
46087;BME280;31824;49.648;8.640;2023-02-28T09:36:58;101384.28;;;1.96;100.00
46087;BME280;31824;49.648;8.640;2023-02-28T09:40:00;101388.06;;;1.93;100.00
46087;BME280;31824;49.648;8.640;2023-02-28T09:43:02;101394.00;;;2.16;100.00
46087;BME280;31824;49.648;8.640;2023-02-28T09:46:10;101379.50;;;2.29;100.00
46087;BME280;31824;49.648;8.640;2023-02-28T09:49:20;101368.41;;;2.55;100.00
46087;BME280;31824;49.648;8.640;2023-02-28T09:52:28;101378.22;;;2.39;100.00
46087;BME280;31824;49.648;8.640;2023-02-28T09:55:33;101374.72;;;2.38;100.00
46087;BME280;31824;49.648;8.640;2023-02-28T09:58:49;101372.84;;;2.37;100.00
46087;BME280;31824;49.648;8.640;2023-02-28T10:01:57;101378.66;;;2.17;100.00
46087;BME280;31824;49.648;8.640;2023-02-28T10:05:05;101389.47;;;2.45;100.00
46087;BME280;31824;49.648;8.640;2023-02-28T10:08:13;101375.34;;;2.43;100.00
46087;BME280;31824;49.648;8.640;2023-02-28T10:11:16;101373.66;;;2.25;100.00
46087;BME280;31824;49.648;8.640;2023-02-28T10:14:21;101372.72;;;2.24;100.00
46087;BME280;31824;49.648;8.640;2023-02-28T10:17:36;101368.28;;;2.42;100.00
46087;BME280;31824;49.648;8.640;2023-02-28T10:20:57;101376.13;;;2.60;100.00
46087;BME280;31824;49.648;8.640;2023-02-28T10:24:04;101375.75;;;2.70;100.00
46087;BME280;31824;49.648;8.640;2023-02-28T10:27:13;101382.69;;;3.01;100.00
46087;BME280;31824;49.648;8.640;2023-02-28T10:30:16;101371.78;;;2.66;100.00
46087;BME280;31824;49.648;8.640;2023-02-28T10:33:22;101374.53;;;3.11;100.00
46087;BME280;31824;49.648;8.640;2023-02-28T10:36:26;101378.28;;;3.13;100.00
46087;BME280;31824;49.648;8.640;2023-02-28T10:39:40;101362.34;;;2.85;100.00
46087;BME280;31824;49.648;8.640;2023-02-28T10:42:55;101371.59;;;3.02;100.00
46087;BME280;31824;49.648;8.640;2023-02-28T10:46:03;101373.28;;;3.64;100.00
46087;BME280;31824;49.648;8.640;2023-02-28T10:49:11;101370.38;;;3.68;100.00
46087;BME280;31824;49.648;8.640;2023-02-28T10:52:33;101368.16;;;3.46;100.00
46087;BME280;31824;49.648;8.640;2023-02-28T10:55:36;101374.97;;;3.77;100.00
46087;BME280;31824;49.648;8.640;2023-02-28T10:58:53;101369.53;;;3.94;100.00
46087;BME280;31824;49.648;8.640;2023-02-28T11:01:56;101366.09;;;4.13;100.00
46087;BME280;31824;49.648;8.640;2023-02-28T11:04:58;101369.38;;;3.74;100.00
46087;BME280;31824;49.648;8.640;2023-02-28T11:08:06;101370.56;;;4.01;100.00
46087;BME280;31824;49.648;8.640;2023-02-28T11:11:12;101371.34;;;3.69;100.00
46087;BME280;31824;49.648;8.640;2023-02-28T11:14:19;101367.38;;;4.35;100.00
46087;BME280;31824;49.648;8.640;2023-02-28T11:17:24;101364.75;;;3.52;100.00
46087;BME280;31824;49.648;8.640;2023-02-28T11:20:28;101361.34;;;3.59;100.00
46087;BME280;31824;49.648;8.640;2023-02-28T11:23:36;101362.06;;;4.15;100.00
46087;BME280;31824;49.648;8.640;2023-02-28T11:26:41;101364.16;;;3.74;100.00
46087;BME280;31824;49.648;8.640;2023-02-28T11:29:47;101362.47;;;3.61;100.00
46087;BME280;31824;49.648;8.640;2023-02-28T11:32:49;101364.81;;;3.91;100.00
46087;BME280;31824;49.648;8.640;2023-02-28T11:35:52;101371.34;;;3.82;100.00
46087;BME280;31824;49.648;8.640;2023-02-28T11:39:00;101358.81;;;3.85;100.00
46087;BME280;31824;49.648;8.640;2023-02-28T11:42:19;101357.19;;;3.67;100.00
46087;BME280;31824;49.648;8.640;2023-02-28T11:45:41;101345.53;;;4.15;100.00
46087;BME280;31824;49.648;8.640;2023-02-28T11:48:51;101340.97;;;3.75;100.00
46087;BME280;31824;49.648;8.640;2023-02-28T11:51:59;101343.84;;;4.28;100.00
46087;BME280;31824;49.648;8.640;2023-02-28T11:55:13;101332.06;;;4.50;100.00
46087;BME280;31824;49.648;8.640;2023-02-28T11:58:26;101332.47;;;4.53;100.00
46087;BME280;31824;49.648;8.640;2023-02-28T12:01:40;101339.78;;;5.22;100.00
46087;BME280;31824;49.648;8.640;2023-02-28T12:04:52;101334.19;;;4.86;100.00
46087;BME280;31824;49.648;8.640;2023-02-28T12:08:06;101337.28;;;5.77;100.00
46087;BME280;31824;49.648;8.640;2023-02-28T12:11:19;101320.13;;;5.11;100.00
46087;BME280;31824;49.648;8.640;2023-02-28T12:14:46;101348.91;;;5.05;100.00
46087;BME280;31824;49.648;8.640;2023-02-28T12:17:56;101339.75;;;5.55;100.00
46087;BME280;31824;49.648;8.640;2023-02-28T12:21:01;101339.56;;;5.20;100.00
46087;BME280;31824;49.648;8.640;2023-02-28T12:24:18;101326.94;;;5.03;100.00
46087;BME280;31824;49.648;8.640;2023-02-28T12:27:29;101340.09;;;6.25;100.00
46087;BME280;31824;49.648;8.640;2023-02-28T12:30:35;101320.03;;;6.04;100.00
46087;BME280;31824;49.648;8.640;2023-02-28T12:33:42;101330.09;;;5.41;100.00
46087;BME280;31824;49.648;8.640;2023-02-28T12:36:47;101311.31;;;5.44;100.00
46087;BME280;31824;49.648;8.640;2023-02-28T12:39:54;101333.91;;;5.50;100.00
46087;BME280;31824;49.648;8.640;2023-02-28T12:43:02;101331.91;;;4.82;100.00
46087;BME280;31824;49.648;8.640;2023-02-28T12:46:10;101335.59;;;5.30;100.00
46087;BME280;31824;49.648;8.640;2023-02-28T12:49:18;101328.53;;;5.96;100.00
46087;BME280;31824;49.648;8.640;2023-02-28T12:52:31;101324.91;;;6.78;100.00
46087;BME280;31824;49.648;8.640;2023-02-28T12:55:41;101327.44;;;6.63;100.00
46087;BME280;31824;49.648;8.640;2023-02-28T12:58:49;101333.25;;;6.68;100.00
46087;BME280;31824;49.648;8.640;2023-02-28T13:02:01;101316.44;;;5.77;100.00
46087;BME280;31824;49.648;8.640;2023-02-28T13:09:04;101325.22;;;5.17;100.00
46087;BME280;31824;49.648;8.640;2023-02-28T13:12:13;101313.72;;;5.82;100.00
46087;BME280;31824;49.648;8.640;2023-02-28T13:15:20;101307.63;;;6.51;100.00
46087;BME280;31824;49.648;8.640;2023-02-28T13:18:31;101309.28;;;6.16;100.00
46087;BME280;31824;49.648;8.640;2023-02-28T13:21:42;101317.91;;;5.74;100.00
46087;BME280;31824;49.648;8.640;2023-02-28T13:24:46;101318.69;;;6.63;100.00
46087;BME280;31824;49.648;8.640;2023-02-28T13:27:49;101309.66;;;6.95;100.00
46087;BME280;31824;49.648;8.640;2023-02-28T13:31:06;101311.00;;;7.20;100.00
46087;BME280;31824;49.648;8.640;2023-02-28T13:34:14;101320.91;;;7.23;100.00
46087;BME280;31824;49.648;8.640;2023-02-28T13:37:41;101313.84;;;7.65;100.00
46087;BME280;31824;49.648;8.640;2023-02-28T13:40:45;101310.50;;;6.74;100.00
46087;BME280;31824;49.648;8.640;2023-02-28T13:44:01;101316.94;;;6.49;100.00
46087;BME280;31824;49.648;8.640;2023-02-28T13:47:23;101306.34;;;7.39;100.00
46087;BME280;31824;49.648;8.640;2023-02-28T13:50:34;101322.25;;;7.91;100.00
46087;BME280;31824;49.648;8.640;2023-02-28T13:53:57;101321.88;;;7.81;100.00
46087;BME280;31824;49.648;8.640;2023-02-28T13:57:17;101320.00;;;7.58;100.00
46087;BME280;31824;49.648;8.640;2023-02-28T14:00:35;101319.81;;;7.93;100.00
46087;BME280;31824;49.648;8.640;2023-02-28T14:04:03;101320.94;;;8.76;100.00
46087;BME280;31824;49.648;8.640;2023-02-28T14:07:09;101322.16;;;8.94;100.00
46087;BME280;31824;49.648;8.640;2023-02-28T14:10:24;101312.88;;;8.01;100.00
46087;BME280;31824;49.648;8.640;2023-02-28T14:13:42;101322.13;;;8.56;100.00
46087;BME280;31824;49.648;8.640;2023-02-28T14:16:49;101312.22;;;6.81;100.00
46087;BME280;31824;49.648;8.640;2023-02-28T14:19:53;101318.06;;;8.37;100.00
46087;BME280;31824;49.648;8.640;2023-02-28T14:23:02;101312.50;;;8.05;100.00
46087;BME280;31824;49.648;8.640;2023-02-28T14:26:16;101320.53;;;8.80;100.00
46087;BME280;31824;49.648;8.640;2023-02-28T14:29:38;101306.00;;;7.51;100.00
46087;BME280;31824;49.648;8.640;2023-02-28T14:32:49;101315.16;;;7.54;100.00
46087;BME280;31824;49.648;8.640;2023-02-28T14:36:06;101312.16;;;7.80;100.00
46087;BME280;31824;49.648;8.640;2023-02-28T14:39:12;101314.44;;;6.36;100.00
46087;BME280;31824;49.648;8.640;2023-02-28T14:42:28;101314.59;;;7.78;100.00
46087;BME280;31824;49.648;8.640;2023-02-28T14:45:31;101303.00;;;6.28;100.00
46087;BME280;31824;49.648;8.640;2023-02-28T14:48:34;101305.16;;;6.94;100.00
46087;BME280;31824;49.648;8.640;2023-02-28T14:51:38;101303.16;;;7.06;100.00
46087;BME280;31824;49.648;8.640;2023-02-28T14:54:41;101300.53;;;8.07;100.00
46087;BME280;31824;49.648;8.640;2023-02-28T14:57:51;101305.94;;;8.23;100.00
46087;BME280;31824;49.648;8.640;2023-02-28T15:00:55;101297.44;;;7.59;100.00
46087;BME280;31824;49.648;8.640;2023-02-28T15:04:00;101292.84;;;6.93;100.00
46087;BME280;31824;49.648;8.640;2023-02-28T15:07:13;101294.53;;;7.00;100.00
46087;BME280;31824;49.648;8.640;2023-02-28T15:10:17;101292.16;;;7.30;100.00
46087;BME280;31824;49.648;8.640;2023-02-28T15:13:20;101290.69;;;6.62;100.00
46087;BME280;31824;49.648;8.640;2023-02-28T15:16:25;101286.91;;;6.52;100.00
46087;BME280;31824;49.648;8.640;2023-02-28T15:19:29;101288.63;;;6.59;100.00
46087;BME280;31824;49.648;8.640;2023-02-28T15:22:36;101293.41;;;6.41;100.00
46087;BME280;31824;49.648;8.640;2023-02-28T15:25:40;101286.75;;;6.16;100.00
46087;BME280;31824;49.648;8.640;2023-02-28T15:28:43;101294.22;;;6.55;100.00
46087;BME280;31824;49.648;8.640;2023-02-28T15:31:48;101284.66;;;6.48;100.00
46087;BME280;31824;49.648;8.640;2023-02-28T15:35:16;101292.22;;;5.78;100.00
46087;BME280;31824;49.648;8.640;2023-02-28T15:38:24;101297.53;;;5.85;100.00
46087;BME280;31824;49.648;8.640;2023-02-28T15:41:28;101297.91;;;5.40;100.00
46087;BME280;31824;49.648;8.640;2023-02-28T15:44:33;101297.91;;;5.40;100.00
46087;BME280;31824;49.648;8.640;2023-02-28T15:47:38;101299.09;;;5.30;100.00
46087;BME280;31824;49.648;8.640;2023-02-28T15:50:41;101292.00;;;5.49;100.00
46087;BME280;31824;49.648;8.640;2023-02-28T15:53:47;101296.16;;;5.34;100.00
46087;BME280;31824;49.648;8.640;2023-02-28T15:56:51;101301.63;;;5.02;100.00
46087;BME280;31824;49.648;8.640;2023-02-28T15:59:56;101298.09;;;5.02;100.00
46087;BME280;31824;49.648;8.640;2023-02-28T16:03:00;101301.81;;;5.04;100.00
46087;BME280;31824;49.648;8.640;2023-02-28T16:09:27;101300.44;;;5.13;100.00
46087;BME280;31824;49.648;8.640;2023-02-28T16:12:31;101309.13;;;4.94;100.00
46087;BME280;31824;49.648;8.640;2023-02-28T16:15:37;101306.19;;;5.11;100.00
46087;BME280;31824;49.648;8.640;2023-02-28T16:18:43;101308.03;;;4.92;100.00
46087;BME280;31824;49.648;8.640;2023-02-28T16:21:45;101306.13;;;4.90;100.00
46087;BME280;31824;49.648;8.640;2023-02-28T16:24:49;101307.69;;;4.96;100.00
46087;BME280;31824;49.648;8.640;2023-02-28T16:27:51;101307.75;;;5.03;100.00
46087;BME280;31824;49.648;8.640;2023-02-28T16:30:55;101315.75;;;4.84;100.00
46087;BME280;31824;49.648;8.640;2023-02-28T16:33:57;101315.88;;;4.79;100.00
46087;BME280;31824;49.648;8.640;2023-02-28T16:36:59;101312.97;;;4.70;100.00
46087;BME280;31824;49.648;8.640;2023-02-28T16:40:03;101310.69;;;4.66;100.00
46087;BME280;31824;49.648;8.640;2023-02-28T16:43:07;101316.66;;;4.52;100.00
46087;BME280;31824;49.648;8.640;2023-02-28T16:46:15;101314.38;;;4.48;100.00
46087;BME280;31824;49.648;8.640;2023-02-28T16:49:18;101316.06;;;4.34;100.00
46087;BME280;31824;49.648;8.640;2023-02-28T16:52:20;101316.19;;;4.29;100.00
46087;BME280;31824;49.648;8.640;2023-02-28T16:55:24;101326.25;;;4.20;100.00
46087;BME280;31824;49.648;8.640;2023-02-28T16:58:26;101327.00;;;4.06;100.00
46087;BME280;31824;49.648;8.640;2023-02-28T17:01:29;101327.81;;;3.99;100.00
46087;BME280;31824;49.648;8.640;2023-02-28T17:04:33;101327.91;;;3.94;100.00
46087;BME280;31824;49.648;8.640;2023-02-28T17:07:34;101328.34;;;3.84;100.00
46087;BME280;31824;49.648;8.640;2023-02-28T17:10:37;101330.28;;;3.66;100.00
46087;BME280;31824;49.648;8.640;2023-02-28T17:13:39;101340.09;;;3.56;100.00
46087;BME280;31824;49.648;8.640;2023-02-28T17:16:42;101346.72;;;3.41;100.00
46087;BME280;31824;49.648;8.640;2023-02-28T17:19:43;101353.19;;;3.19;100.00
46087;BME280;31824;49.648;8.640;2023-02-28T17:22:45;101353.66;;;3.03;100.00
46087;BME280;31824;49.648;8.640;2023-02-28T17:25:49;101355.94;;;2.89;100.00
46087;BME280;31824;49.648;8.640;2023-02-28T17:28:58;101362.59;;;2.87;100.00
46087;BME280;31824;49.648;8.640;2023-02-28T17:32:00;101366.31;;;2.70;100.00
46087;BME280;31824;49.648;8.640;2023-02-28T17:35:17;101369.97;;;2.60;100.00
46087;BME280;31824;49.648;8.640;2023-02-28T17:38:20;101376.19;;;2.55;100.00
46087;BME280;31824;49.648;8.640;2023-02-28T17:41:25;101378.84;;;2.25;100.00
46087;BME280;31824;49.648;8.640;2023-02-28T17:44:32;101382.03;;;2.11;100.00
46087;BME280;31824;49.648;8.640;2023-02-28T17:47:34;101377.28;;;1.90;100.00
46087;BME280;31824;49.648;8.640;2023-02-28T17:50:36;101379.72;;;1.77;100.00
46087;BME280;31824;49.648;8.640;2023-02-28T17:53:38;101383.09;;;1.70;100.00
46087;BME280;31824;49.648;8.640;2023-02-28T17:56:41;101383.63;;;1.56;100.00
46087;BME280;31824;49.648;8.640;2023-02-28T17:59:44;101383.41;;;1.55;100.00
46087;BME280;31824;49.648;8.640;2023-02-28T18:02:49;101390.53;;;1.50;100.00
46087;BME280;31824;49.648;8.640;2023-02-28T18:05:51;101387.28;;;1.40;100.00
46087;BME280;31824;49.648;8.640;2023-02-28T18:08:53;101382.19;;;1.28;100.00
46087;BME280;31824;49.648;8.640;2023-02-28T18:11:57;101389.28;;;1.18;100.00
46087;BME280;31824;49.648;8.640;2023-02-28T18:14:58;101391.22;;;1.13;100.00
